Aviation Digital Data Service (ADDS)

Output produced by METARs form (1811 UTC 14 August 2018)
found at http://www.aviationweather.gov/adds/metars/
 
TAF TBPB 141700Z 1418/1518 10016KT 9999 SCT020 
     TEMPO 1505/1512 5000 SHRA BKN014